createdAt,value
2022-10-15T00:01:30.658Z,32.83
2022-10-15T00:06:34.582Z,37.03
2022-10-15T00:09:02.721Z,33.83
2022-10-15T00:11:31.448Z,36.23
2022-10-15T00:14:01.713Z,38.90
2022-10-15T00:16:36.573Z,34.73
2022-10-15T00:19:04.717Z,36.60
2022-10-15T00:21:32.921Z,33.80
2022-10-15T00:35:35.565Z,36.00
2022-10-15T00:41:54.504Z,35.60
2022-10-15T00:44:55.077Z,39.00
2022-10-15T00:47:38.746Z,37.63
2022-10-15T00:50:09.953Z,39.03
2022-10-15T00:52:46.801Z,43.50
2022-10-15T00:55:18.647Z,45.20
2022-10-15T00:57:50.025Z,40.90
2022-10-15T01:00:19.144Z,46.37
2022-10-15T01:02:48.289Z,40.53
2022-10-15T01:05:18.184Z,48.17
2022-10-15T01:07:47.694Z,46.10
2022-10-15T01:10:16.703Z,44.40
2022-10-15T01:12:58.058Z,40.60
2022-10-15T01:15:30.514Z,42.13
2022-10-15T01:18:04.699Z,38.80
2022-10-15T01:20:54.984Z,42.50
2022-10-15T01:24:00.766Z,45.03
2022-10-15T01:26:58.568Z,42.53
2022-10-15T01:29:42.247Z,52.00
2022-10-15T01:32:18.485Z,39.33
2022-10-15T01:34:55.516Z,42.40
2022-10-15T01:37:34.336Z,41.87
2022-10-15T01:40:08.291Z,42.80
2022-10-15T01:42:46.810Z,39.83
2022-10-15T01:45:21.343Z,39.90
2022-10-15T01:47:54.606Z,38.30
2022-10-15T01:50:24.965Z,36.87
2022-10-15T01:52:57.609Z,38.97
2022-10-15T01:55:27.644Z,37.20
2022-10-15T01:57:58.978Z,36.93
2022-10-15T02:00:27.106Z,40.30
2022-10-15T02:03:00.923Z,41.43
2022-10-15T02:05:33.368Z,36.80
2022-10-15T02:08:07.891Z,39.00
2022-10-15T02:13:26.838Z,43.70
2022-10-15T02:16:04.290Z,42.60
2022-10-15T02:18:41.027Z,41.90
2022-10-15T02:21:14.964Z,42.80
2022-10-15T02:23:49.304Z,40.40
2022-10-15T02:26:18.609Z,43.13
2022-10-15T02:28:52.900Z,43.90
2022-10-15T02:31:23.088Z,41.57
2022-10-15T02:33:54.419Z,45.57
2022-10-15T02:36:23.137Z,37.90
2022-10-15T02:38:53.763Z,39.77
2022-10-15T02:41:22.186Z,38.57
2022-10-15T02:43:50.221Z,36.73
2022-10-15T02:46:20.590Z,36.93
2022-10-15T02:48:48.719Z,36.40
2022-10-15T02:51:18.192Z,41.30
2022-10-15T02:53:46.230Z,34.23
2022-10-15T02:56:14.355Z,32.60
2022-10-15T02:58:42.503Z,38.40
2022-10-15T03:06:32.638Z,32.73
2022-10-15T03:09:00.780Z,37.83
2022-10-15T03:11:28.842Z,41.37
2022-10-15T03:13:56.838Z,39.50
2022-10-15T03:16:25.031Z,39.47
2022-10-15T03:18:53.069Z,35.33
2022-10-15T03:21:21.139Z,36.90
2022-10-15T03:23:50.545Z,38.87
2022-10-15T03:26:18.570Z,41.07
2022-10-15T03:28:46.790Z,36.63
2022-10-15T03:31:15.283Z,33.40
2022-10-15T03:33:43.327Z,44.60
2022-10-15T03:36:11.699Z,32.83
2022-10-15T03:38:39.762Z,34.80
2022-10-15T03:41:09.343Z,36.60
2022-10-15T03:43:40.317Z,31.37
2022-10-15T03:46:10.907Z,33.90
2022-10-15T03:48:39.040Z,33.00
2022-10-15T03:59:41.915Z,34.97
2022-10-15T04:02:11.326Z,37.53
2022-10-15T04:04:39.452Z,32.70
2022-10-15T04:07:07.551Z,37.13
2022-10-15T04:09:35.659Z,37.57
2022-10-15T04:12:03.704Z,34.80
2022-10-15T04:14:31.744Z,34.43
2022-10-15T04:17:00.054Z,38.97
2022-10-15T04:19:29.487Z,37.23
2022-10-15T04:21:57.773Z,38.27
2022-10-15T04:24:25.918Z,37.73
2022-10-15T04:26:54.031Z,34.83
2022-10-15T04:29:22.076Z,36.57
2022-10-15T04:31:50.105Z,36.47
2022-10-15T04:34:18.190Z,35.63
2022-10-15T04:36:47.584Z,34.23
2022-10-15T04:39:15.609Z,36.50
2022-10-15T04:41:43.785Z,39.90
2022-10-15T04:44:12.107Z,38.27
2022-10-15T04:46:40.243Z,43.23
2022-10-15T04:49:08.450Z,38.43
2022-10-15T04:51:37.649Z,41.67
2022-10-15T04:54:07.226Z,43.37
2022-10-15T04:56:35.294Z,39.67
2022-10-15T04:59:03.393Z,46.30
2022-10-15T05:01:31.437Z,39.70
2022-10-15T05:03:59.481Z,36.87
2022-10-15T05:06:27.773Z,39.67
2022-10-15T05:08:55.825Z,42.33
2022-10-15T05:11:28.095Z,40.27
2022-10-15T05:13:56.913Z,43.50
2022-10-15T05:16:26.736Z,45.30
2022-10-15T05:18:58.240Z,37.93
2022-10-15T05:21:26.358Z,41.37
2022-10-15T05:23:54.457Z,39.67
2022-10-15T05:26:26.093Z,41.53
2022-10-15T05:28:54.484Z,43.53
2022-10-15T05:31:23.897Z,43.90
2022-10-15T05:33:54.264Z,45.80
2022-10-15T05:36:24.421Z,51.70
2022-10-15T05:38:54.069Z,49.60
2022-10-15T05:41:22.859Z,49.73
2022-10-15T05:43:53.325Z,54.97
2022-10-15T05:46:24.841Z,54.70
2022-10-15T05:48:54.143Z,56.00
2022-10-15T05:51:24.440Z,48.93
2022-10-15T05:53:53.986Z,55.27
2022-10-15T05:56:22.091Z,54.33
2022-10-15T05:58:50.431Z,59.40
2022-10-15T06:01:20.814Z,54.93
2022-10-15T06:03:48.825Z,56.67
2022-10-15T06:06:19.484Z,49.87
2022-10-15T06:08:47.726Z,49.70
2022-10-15T06:11:15.998Z,49.97
2022-10-15T06:13:45.176Z,50.33
2022-10-15T06:16:16.609Z,51.93
2022-10-15T06:18:48.916Z,54.13
2022-10-15T06:21:17.053Z,48.37
2022-10-15T06:23:45.634Z,48.47
2022-10-15T06:26:13.863Z,46.73
2022-10-15T06:28:41.949Z,45.20
2022-10-15T06:31:10.015Z,40.83
2022-10-15T06:33:38.229Z,44.93
2022-10-15T06:36:09.728Z,43.90
2022-10-15T06:38:39.500Z,39.33
2022-10-15T06:41:08.579Z,36.13
2022-10-15T06:43:37.151Z,39.67
2022-10-15T06:46:07.007Z,40.50
2022-10-15T06:48:35.794Z,34.43
2022-10-15T06:51:04.661Z,43.20
2022-10-15T06:53:34.239Z,34.80
2022-10-15T06:56:04.463Z,37.00
2022-10-15T06:58:32.490Z,39.33
2022-10-15T07:01:03.978Z,39.57
2022-10-15T07:03:32.058Z,41.17
2022-10-15T07:06:04.530Z,40.83
2022-10-15T07:08:34.287Z,38.97
2022-10-15T07:11:03.218Z,38.80
2022-10-15T07:13:31.822Z,40.60
2022-10-15T07:15:59.878Z,40.30
2022-10-15T07:18:27.985Z,40.27
2022-10-15T07:20:58.230Z,37.97
2022-10-15T07:23:27.869Z,39.50
2022-10-15T07:25:58.754Z,36.40
2022-10-15T07:28:27.367Z,36.73
2022-10-15T07:30:55.457Z,34.33
2022-10-15T07:33:23.495Z,34.20
2022-10-15T07:35:51.555Z,36.53
2022-10-15T07:38:19.611Z,34.63
2022-10-15T07:40:47.711Z,29.37
2022-10-15T07:43:17.256Z,31.60
2022-10-15T07:45:50.267Z,30.47
2022-10-15T07:48:18.516Z,29.70
2022-10-15T07:50:46.558Z,30.13
2022-10-15T07:53:16.148Z,29.93
2022-10-15T07:55:47.256Z,28.03
2022-10-15T07:58:16.939Z,23.93
2022-10-15T08:00:45.205Z,26.23
2022-10-15T08:03:13.245Z,22.83
2022-10-15T08:05:41.259Z,24.63
2022-10-15T08:08:09.408Z,20.43
2022-10-15T08:10:37.762Z,24.17
2022-10-15T08:13:05.871Z,22.00
2022-10-15T08:15:35.279Z,19.57
2022-10-15T08:18:03.341Z,17.13
2022-10-15T08:20:31.377Z,15.55
2022-10-15T08:22:59.461Z,17.25
2022-10-15T08:25:27.682Z,17.35
2022-10-15T08:27:56.519Z,15.95
2022-10-15T08:30:24.764Z,18.95
2022-10-15T08:32:54.181Z,15.70
2022-10-15T08:35:22.524Z,17.00
2022-10-15T08:37:50.576Z,16.55
2022-10-15T08:40:18.811Z,17.13
2022-10-15T08:42:48.060Z,16.15
2022-10-15T08:45:20.540Z,17.65
2022-10-15T08:47:52.534Z,16.45
2022-10-15T08:50:35.486Z,16.17
2022-10-15T08:53:03.819Z,15.80
2022-10-15T08:55:36.666Z,14.27
2022-10-15T08:58:13.986Z,16.10
2022-10-15T09:00:45.393Z,14.27
2022-10-15T09:03:26.335Z,14.80
2022-10-15T09:06:05.236Z,13.07
2022-10-15T09:08:42.350Z,12.75
2022-10-15T09:11:17.866Z,14.13
2022-10-15T09:13:47.364Z,11.60
2022-10-15T09:16:18.237Z,11.03
2022-10-15T09:18:48.579Z,12.18
2022-10-15T09:21:18.171Z,9.80
2022-10-15T09:23:46.310Z,10.95
2022-10-15T09:26:25.168Z,11.80
2022-10-15T09:29:03.329Z,10.18
2022-10-15T09:31:36.346Z,9.93
2022-10-15T09:34:11.562Z,9.70
2022-10-15T09:36:47.039Z,10.05
2022-10-15T09:39:35.736Z,8.75
2022-10-15T09:42:14.771Z,12.38
2022-10-15T09:44:46.012Z,9.43
2022-10-15T09:47:18.839Z,8.60
2022-10-15T09:49:46.932Z,9.85
2022-10-15T09:52:22.928Z,9.27
2022-10-15T09:55:00.391Z,9.85
2022-10-15T09:57:30.572Z,9.10
2022-10-15T10:00:01.818Z,9.57
2022-10-15T10:02:31.076Z,7.93
2022-10-15T10:04:59.197Z,9.95
2022-10-15T10:07:37.166Z,11.25
2022-10-15T10:10:08.486Z,10.80
2022-10-15T10:12:38.471Z,11.17
2022-10-15T10:15:28.870Z,11.77
2022-10-15T10:17:59.036Z,11.33
2022-10-15T10:20:28.159Z,11.83
2022-10-15T10:22:58.515Z,11.23
2022-10-15T10:25:35.471Z,11.50
2022-10-15T10:28:16.424Z,13.53
2022-10-15T10:31:00.284Z,11.47
2022-10-15T10:33:31.961Z,11.63
2022-10-15T10:36:01.164Z,13.67
2022-10-15T10:38:32.741Z,13.40
2022-10-15T10:41:05.476Z,12.77
2022-10-15T10:43:39.183Z,13.53
2022-10-15T10:46:19.363Z,13.93
2022-10-15T10:48:50.834Z,14.90
2022-10-15T10:51:20.933Z,12.30
2022-10-15T10:53:52.979Z,11.60
2022-10-15T10:56:25.005Z,12.57
2022-10-15T10:58:58.498Z,12.67
2022-10-15T11:01:26.566Z,13.13
2022-10-15T11:03:56.045Z,12.50
2022-10-15T11:06:54.446Z,9.97
2022-10-15T11:09:39.833Z,10.30
2022-10-15T11:12:25.632Z,9.93
2022-10-15T11:14:58.413Z,8.63
2022-10-15T11:17:37.236Z,9.67
2022-10-15T11:23:20.690Z,9.57
2022-10-15T11:26:02.368Z,9.10
2022-10-15T11:28:47.646Z,7.57
2022-10-15T11:31:24.612Z,6.80
2022-10-15T11:34:05.668Z,8.37
2022-10-15T11:37:00.469Z,5.80
2022-10-15T11:39:52.541Z,8.40
2022-10-15T11:42:26.244Z,9.17
2022-10-15T11:45:11.688Z,5.60
2022-10-15T11:47:51.476Z,6.83
2022-10-15T11:50:28.207Z,6.73
2022-10-15T12:08:13.916Z,5.20
2022-10-15T12:11:01.895Z,6.03
2022-10-15T12:13:39.152Z,5.20
2022-10-15T12:16:17.929Z,5.37
2022-10-15T12:18:51.299Z,6.60
2022-10-15T12:21:38.403Z,5.23
2022-10-15T12:24:47.768Z,6.13
2022-10-15T12:27:24.658Z,7.20
2022-10-15T12:30:11.802Z,5.97
2022-10-15T12:32:42.643Z,5.93
2022-10-15T12:35:24.475Z,6.03
2022-10-15T12:37:52.936Z,5.90
2022-10-15T12:40:32.305Z,6.97
2022-10-15T12:43:02.642Z,4.60
2022-10-15T12:45:39.114Z,4.93
2022-10-15T12:48:28.947Z,4.72
2022-10-15T12:51:29.254Z,4.60
2022-10-15T12:53:59.558Z,5.07
2022-10-15T12:56:41.687Z,4.28
2022-10-15T12:59:32.220Z,4.97
2022-10-15T13:02:00.304Z,3.85
2022-10-15T13:04:39.822Z,3.20
2022-10-15T13:07:08.005Z,3.30
2022-10-15T13:09:36.176Z,3.53
2022-10-15T13:12:05.943Z,3.08
2022-10-15T13:14:38.651Z,3.80
2022-10-15T13:17:15.691Z,3.05
2022-10-15T13:19:49.854Z,2.38
2022-10-15T13:22:24.705Z,2.60
2022-10-15T13:24:53.011Z,2.50
2022-10-15T13:27:26.883Z,2.78
2022-10-15T13:30:00.167Z,2.95
2022-10-15T13:32:31.767Z,3.00
2022-10-15T13:35:01.466Z,3.42
2022-10-15T13:37:33.762Z,4.65
2022-10-15T13:40:07.467Z,3.45
2022-10-15T13:42:37.998Z,4.15
2022-10-15T13:45:18.031Z,3.30
2022-10-15T13:47:50.001Z,4.32
2022-10-15T13:50:24.898Z,4.32
2022-10-15T13:52:56.531Z,4.65
2022-10-15T13:55:28.489Z,5.22
2022-10-15T13:58:01.493Z,4.28
2022-10-15T14:00:32.609Z,3.95
2022-10-15T14:03:25.490Z,3.60
2022-10-15T14:05:55.211Z,3.70
2022-10-15T14:08:26.927Z,4.05
2022-10-15T14:10:59.529Z,3.65
2022-10-15T14:13:29.666Z,3.50
2022-10-15T14:18:38.759Z,5.78
2022-10-15T14:21:13.135Z,2.20
2022-10-15T14:23:43.050Z,2.67
2022-10-15T14:26:15.331Z,1.50
2022-10-15T14:28:50.891Z,1.57
2022-10-15T14:31:34.553Z,1.90
2022-10-15T14:34:02.858Z,1.43
2022-10-15T14:36:32.908Z,2.07
2022-10-15T14:39:28.681Z,2.37
2022-10-15T14:41:58.166Z,2.40
2022-10-15T14:44:27.792Z,2.53
2022-10-15T14:47:03.405Z,1.80
2022-10-15T14:49:34.477Z,1.67
2022-10-15T14:52:06.527Z,1.40
2022-10-15T14:54:42.025Z,1.33
2022-10-15T14:57:19.080Z,1.47
2022-10-15T14:59:48.711Z,2.03
2022-10-15T15:02:17.862Z,1.77
2022-10-15T15:05:06.683Z,1.13
2022-10-15T15:07:34.781Z,1.33
2022-10-15T15:10:02.920Z,2.17
2022-10-15T15:12:32.497Z,1.63
2022-10-15T15:15:02.230Z,1.63
2022-10-15T15:17:31.053Z,1.63
2022-10-15T15:19:59.533Z,1.67
2022-10-15T15:22:30.575Z,1.63
2022-10-15T15:25:00.941Z,2.70
2022-10-15T15:27:31.193Z,2.00
2022-10-15T15:30:00.896Z,2.63
2022-10-15T15:32:28.999Z,1.40
2022-10-15T15:34:58.788Z,1.80
2022-10-15T15:37:27.755Z,1.27
2022-10-15T15:39:56.378Z,2.57
2022-10-15T15:42:26.243Z,0.93
2022-10-15T15:44:54.482Z,1.47
2022-10-15T15:47:24.043Z,1.77
2022-10-15T15:49:52.130Z,2.27
2022-10-15T15:52:20.221Z,2.27
2022-10-15T15:54:48.325Z,1.27
2022-10-15T15:57:16.700Z,2.00
2022-10-15T15:59:44.731Z,3.27
2022-10-15T16:02:14.044Z,3.87
2022-10-15T16:04:45.475Z,2.07
2022-10-15T16:07:13.827Z,1.80
2022-10-15T16:09:42.246Z,3.13
2022-10-15T16:12:10.308Z,2.93
2022-10-15T16:14:38.441Z,1.40
2022-10-15T16:17:06.686Z,1.77
2022-10-15T16:19:34.801Z,4.60
2022-10-15T16:22:04.332Z,2.80
2022-10-15T16:24:32.486Z,1.93
2022-10-15T16:27:00.727Z,2.23
2022-10-15T16:29:28.811Z,5.23
2022-10-15T16:31:56.884Z,1.83
2022-10-15T16:34:25.029Z,1.77
2022-10-15T16:36:53.097Z,2.03
2022-10-15T16:39:22.624Z,2.87
2022-10-15T16:41:50.814Z,1.90
2022-10-15T16:44:18.888Z,2.33
2022-10-15T16:46:46.956Z,1.77
2022-10-15T16:49:15.068Z,1.43
2022-10-15T16:51:43.873Z,1.83
2022-10-15T16:54:15.562Z,3.03
2022-10-15T16:56:49.049Z,3.03
2022-10-15T16:59:21.473Z,3.07
2022-10-15T17:01:49.610Z,1.87
2022-10-15T17:04:17.742Z,1.67
2022-10-15T17:06:45.947Z,1.70
2022-10-15T17:09:14.547Z,1.60
2022-10-15T17:11:46.945Z,3.87
2022-10-15T17:14:16.951Z,1.40
2022-10-15T17:16:46.717Z,1.43
2022-10-15T17:19:17.027Z,2.97
2022-10-15T17:21:47.104Z,2.77
2022-10-15T17:24:16.747Z,2.13
2022-10-15T17:26:48.158Z,3.03
2022-10-15T17:29:20.654Z,1.17
2022-10-15T17:31:55.325Z,3.40
2022-10-15T17:34:23.483Z,3.03
2022-10-15T17:36:52.294Z,5.30
2022-10-15T17:39:22.509Z,4.70
2022-10-15T17:41:52.574Z,3.00
2022-10-15T17:44:20.786Z,4.50
2022-10-15T17:46:52.843Z,3.50
2022-10-15T17:49:21.067Z,5.57
2022-10-15T17:51:49.205Z,4.57
2022-10-15T17:54:17.316Z,3.13
2022-10-15T17:56:45.376Z,4.43
2022-10-15T17:59:14.811Z,3.90
2022-10-15T18:02:00.790Z,2.47
2022-10-15T18:04:29.688Z,4.77
2022-10-15T18:06:57.976Z,2.00
2022-10-15T18:09:26.957Z,4.10
2022-10-15T18:11:55.021Z,2.40
2022-10-15T18:14:24.453Z,2.83
2022-10-15T18:16:52.533Z,2.80
2022-10-15T18:19:20.864Z,5.23
2022-10-15T18:21:49.919Z,4.47
2022-10-15T18:24:21.674Z,4.90
2022-10-15T18:26:50.633Z,2.10
2022-10-15T18:29:18.822Z,6.00
2022-10-15T18:31:51.240Z,2.93
2022-10-15T18:34:22.993Z,4.20
2022-10-15T18:36:51.123Z,4.50
2022-10-15T18:39:19.202Z,2.80
2022-10-15T18:41:47.284Z,2.93
2022-10-15T18:44:17.777Z,4.17
2022-10-15T18:46:47.553Z,5.50
2022-10-15T18:49:18.143Z,3.33
2022-10-15T18:51:50.733Z,4.23
2022-10-15T18:54:19.402Z,3.90
2022-10-15T18:56:47.485Z,6.40
2022-10-15T18:59:15.554Z,6.13
2022-10-15T19:01:44.393Z,3.83
2022-10-15T19:04:15.789Z,4.97
2022-10-15T19:06:45.918Z,5.57
2022-10-15T19:09:16.012Z,3.97
2022-10-15T19:11:46.657Z,8.73
2022-10-15T19:14:15.855Z,7.57
2022-10-15T19:16:44.363Z,4.77
2022-10-15T19:19:16.327Z,5.90
2022-10-15T19:21:45.015Z,6.03
2022-10-15T19:24:13.285Z,3.63
2022-10-15T19:26:41.458Z,6.97
2022-10-15T19:29:09.735Z,3.53
2022-10-15T19:31:39.874Z,4.60
2022-10-15T19:34:08.402Z,4.03
2022-10-15T19:36:39.711Z,4.50
2022-10-15T19:39:10.286Z,5.00
2022-10-15T19:41:38.823Z,5.03
2022-10-15T19:44:08.341Z,5.33
2022-10-15T19:46:36.584Z,7.23
2022-10-15T19:49:05.564Z,4.33
2022-10-15T19:51:33.661Z,4.60
2022-10-15T19:54:03.230Z,5.40
2022-10-15T19:56:31.622Z,7.13
2022-10-15T19:59:01.289Z,4.33
2022-10-15T20:01:30.356Z,5.87
2022-10-15T20:04:03.230Z,3.67
2022-10-15T20:06:34.941Z,6.03
2022-10-15T20:09:04.815Z,3.90
2022-10-15T20:11:33.008Z,5.60
2022-10-15T20:14:01.275Z,6.10
2022-10-15T20:16:32.853Z,4.20
2022-10-15T20:19:02.548Z,4.67
2022-10-15T20:21:30.729Z,5.37
2022-10-15T20:23:58.801Z,4.67
2022-10-15T20:26:28.285Z,4.97
2022-10-15T20:28:56.422Z,5.57
2022-10-15T20:31:28.762Z,5.27
2022-10-15T20:33:56.851Z,7.23
2022-10-15T20:36:27.287Z,5.10
2022-10-15T20:38:57.506Z,5.40
2022-10-15T20:41:27.256Z,5.27
2022-10-15T20:43:56.923Z,4.83
2022-10-15T20:46:30.162Z,4.47
2022-10-15T20:49:07.601Z,10.03
2022-10-15T20:51:37.921Z,10.90
2022-10-15T20:54:06.482Z,6.10
2022-10-15T20:56:36.315Z,5.43
2022-10-15T20:59:05.153Z,4.50
2022-10-15T21:01:33.679Z,4.97
2022-10-15T21:04:02.669Z,5.97
2022-10-15T21:06:31.056Z,7.60
2022-10-15T21:08:59.672Z,5.47
2022-10-15T21:11:27.866Z,5.40
2022-10-15T21:13:57.371Z,5.00
2022-10-15T21:16:28.199Z,6.23
2022-10-15T21:18:56.787Z,3.60
2022-10-15T21:21:24.943Z,4.27
2022-10-15T21:23:53.080Z,7.10
2022-10-15T21:26:21.856Z,5.83
2022-10-15T21:28:54.019Z,3.40
2022-10-15T21:31:23.826Z,7.00
2022-10-15T21:33:52.352Z,5.53
2022-10-15T21:36:22.674Z,4.23
2022-10-15T21:38:53.978Z,5.50
2022-10-15T21:41:22.616Z,6.10
2022-10-15T21:46:25.938Z,6.77
2022-10-15T21:48:54.900Z,3.50
2022-10-15T21:51:25.828Z,8.40
2022-10-15T21:53:54.237Z,7.70
2022-10-15T21:56:22.865Z,4.80
2022-10-15T21:58:52.064Z,3.90
2022-10-15T22:01:21.861Z,3.70
2022-10-15T22:03:53.186Z,5.17
2022-10-15T22:06:22.191Z,7.90
2022-10-15T22:08:50.831Z,4.80
2022-10-15T22:11:20.759Z,3.67
2022-10-15T22:13:50.463Z,6.27
2022-10-15T22:16:19.792Z,6.03
2022-10-15T22:18:48.289Z,5.23
2022-10-15T22:21:20.507Z,7.73
2022-10-15T22:23:50.199Z,12.93
2022-10-15T22:26:20.505Z,4.87
2022-10-15T22:28:49.003Z,4.30
2022-10-15T22:31:18.393Z,8.73
2022-10-15T22:33:47.384Z,7.37
2022-10-15T22:36:18.806Z,5.17
2022-10-15T22:38:49.124Z,5.63
2022-10-15T22:41:17.767Z,6.83
2022-10-15T22:43:45.776Z,7.53
2022-10-15T22:46:14.213Z,7.63
2022-10-15T22:48:43.544Z,4.77
2022-10-15T22:51:14.266Z,5.37
2022-10-15T22:53:44.094Z,6.53
2022-10-15T22:56:14.383Z,5.20
2022-10-15T22:58:42.893Z,8.93
2022-10-15T23:01:12.441Z,5.57
2022-10-15T23:03:41.660Z,8.40
2022-10-15T23:06:10.056Z,5.87
2022-10-15T23:08:38.399Z,7.00
2022-10-15T23:11:10.215Z,4.93
2022-10-15T23:13:38.753Z,6.40
2022-10-15T23:16:08.620Z,8.20
2022-10-15T23:18:36.639Z,3.97
2022-10-15T23:21:06.612Z,4.17
2022-10-15T23:23:34.680Z,4.90
2022-10-15T23:26:02.910Z,4.13
2022-10-15T23:28:32.313Z,5.00
2022-10-15T23:31:00.379Z,5.87
2022-10-15T23:33:28.439Z,4.33
2022-10-15T23:36:01.220Z,3.50
2022-10-15T23:38:30.307Z,4.23
2022-10-15T23:41:02.536Z,3.90
2022-10-15T23:43:32.067Z,5.27
2022-10-15T23:46:00.824Z,5.43
2022-10-15T23:48:29.474Z,6.00
2022-10-15T23:51:00.957Z,5.30
2022-10-15T23:53:33.699Z,4.73
2022-10-15T23:56:03.586Z,3.20
2022-10-15T23:58:33.075Z,4.03
